Albi, France

11:58 AM CEST on August 20, 2014 (GMT +0200)
station albi | Change Station
CLOSE
Current Station
Personal Weather Station
Location: Albi, MIDI-PYRéNéES
Elevation: 594 ft
Nearby Weather Stations

Elev 594 ft 43.93 °N, 2.15 °E | Updated 0 second ago

Partly Cloudy
Partly Cloudy
65.3 °F
Feels Like 65.3 °F
N
2.2
Wind Variable Wind from WSW
Gusts 2.2 mph

Today
High -- | Low -- °F
--% Chance of Precip.
Yesterday
High -- | Low -- °F
Precip. -- in
7:00 AM 8:48 PM
Waning Crescent, 23% visible
Pressure 30.09 in
Visibility 6.2 miles
Clouds Few 3600 ft
Dew Point 57 °F
Humidity 72%
Rainfall 0.00 in
Snow Depth Not available.
UV 7 out of 12
Pollen Not available.
Air Quality Not available.
Flu Activity Not available.
METAR LFCK 200930Z AUTO 32005KT 270V010 9999 FEW036 19/12 Q1019

More Conditions Fewer Conditions

Pressure 30.09 in
Visibility 6.2 miles
Clouds Few 3600 ft
Dew Point 57 °F
Humidity 72%
Rainfall 0.00 in
Snow Depth Not available.
UV 7 out of 12
Pollen Not available.
Air Quality Not available.
Flu Activity Not available.
METAR LFCK 200930Z AUTO 32005KT 270V010 9999 FEW036 19/12 Q1019

More Conditions Fewer Conditions

10-Day Weather Forecast

Almanac

Astronomy

Aug. 20, 2014 Rise Set
Actual Time 7:00 AM CEST 8:48 PM CEST
Civil Twilight 6:30 AM CEST 9:18 PM CEST
Nautical Twilight 5:52 AM CEST 9:56 PM CEST
Astronomical Twilight 5:12 AM CEST 10:36 PM CEST
Moon 2:24 AM CEST 5:24 PM CEST
Length of Visible Light 14h 48m
Length of Day
13h 47m
Tomorrow will be 2m 46s shorter.
Waning Crescent, 23% of the Moon is Illuminated
Today
Waning Crescent
Aug 25
New
Sep 2
First Quarter
Sep 8
Full
Sep 15
Last Quarter

Yesterday's Extremes

Country Highs Country Lows

Community

WunderPhotos

Upload Photos

1,745,604 photos uploaded!

Nearby

Snow Depth

Not available.

Earthquake Activity

City Distance Mag. Time & Date
No recent earthquake activity has been reported nearby.
Minimum magnitude displayed is 2.5.

Coastal Water Temperatures

Place Temperature
No Stations Reporting

Nearby Weather Stations